Latest Weather Observations for Christmas Creek

IDW60801

Issued at 8:05 am WST Sunday 26 October 2014 (issued every 30 minutes, with the page automatically refreshed every 10 minutes)

About weather observations | Map of weather stations | Latest weather observations for WA | Other Formats
Station Details ID: 505049 Name: CHRISTMAS CREEK Lat: -22.36 Lon: 119.65 Height: 437.21 m
Data from the previous 72 hours. | See also: Recent months for locations in Western Australia
Date/Time
WST
Temp
°C
App
Temp
°C
Dew
Point
Rel
Hum
%
Delta-T
°C
Wind Press
QNH
hPa
Press
MSL
hPa
Rain
since 9 am
mm
Dir
 
Spd
km/h
Gust
km/h
Spd
kts
Gust
kts
26/08:00am 29.2 23.3 2.0 17 13.6 SSE 22 32 12 17 1017.2 1014.6 0.0
26/07:30am 28.5 23.2 2.1 18 13.2 SSE 19 30 10 16 1017.1 1014.5 0.0
26/07:00am 27.1 23.9 3.1 21 12.1 SSE 9 17 5 9 1017.0 1014.4 0.0
26/06:30am 24.5 22.2 2.9 24 10.7 SE 4 7 2 4 1016.8 1014.2 0.0
26/06:00am 23.5 21.6 3.0 26 10.1 ESE 2 4 1 2 1016.3 1013.6 0.0
26/05:30am 22.7 20.4 2.7 27 9.7 S 4 6 2 3 1016.0 1013.3 0.0
26/05:00am 23.7 21.4 2.7 25 10.3 S 4 6 2 3 1015.7 1013.0 0.0
26/04:30am 24.9 21.6 2.6 23 11.0 SSW 9 11 5 6 1015.2 1012.6 0.0
26/04:00am 26.0 22.7 2.4 21 11.7 S 9 17 5 9 1015.0 1012.4 0.0
26/03:30am 24.4 21.5 2.5 24 10.7 SSW 7 11 4 6 1014.9 1012.3 0.0
26/03:00am 25.5 22.5 2.2 22 11.4 SSW 7 11 4 6 1015.0 1012.4 0.0
26/02:30am 26.9 23.9 2.2 20 12.3 S 7 11 4 6 1015.0 1012.4 0.0
26/02:00am 28.0 23.9 2.4 19 12.8 S 13 17 7 9 1015.2 1012.6 0.0
26/01:30am 28.3 24.6 2.4 19 13.0 S 11 15 6 8 1015.4 1012.8 0.0
26/01:00am 28.9 25.2 2.3 18 13.4 S 11 15 6 8 1015.9 1013.2 0.0
26/12:30am 29.0 25.7 2.2 18 13.5 SSE 9 17 5 9 1016.2 1013.5 0.0
26/12:00am 29.8 26.4 1.9 16 14.0 SSE 9 15 5 8 1016.5 1013.8 0.0
 
Date/Time
WST
Temp
°C
App
Temp
°C
Dew
Point
Rel
Hum
%
Delta-T
°C
Wind Press
QNH
hPa
Press
MSL
hPa
Rain
since 9 am
mm
Dir
 
Spd
km/h
Gust
km/h
Spd
kts
Gust
kts
25/11:30pm 31.5 27.0 2.1 15 15.0 S 15 24 8 13 1016.4 1013.7 0.0
25/11:00pm 32.6 27.1 2.0 14 15.7 S 20 28 11 15 1016.4 1013.7 0.0
25/10:30pm 32.2 29.7 4.8 18 14.7 S 7 13 4 7 1016.6 1013.9 0.0
25/10:00pm 32.7 30.7 8.8 23 13.7 E 9 19 5 10 1016.7 1014.0 0.0
25/09:30pm 33.4 29.8 0.4 12 16.6 SE 9 15 5 8 1016.2 1013.5 0.0
25/09:00pm 34.4 29.7 0.7 12 17.1 SSE 15 26 8 14 1016.0 1013.3 0.0
25/08:30pm 34.5 30.2 1.2 12 17.0 SE 13 20 7 11 1015.4 1012.8 0.0
25/08:00pm 35.0 30.7 1.2 12 17.3 S 13 22 7 12 1014.9 1012.3 0.0
25/07:30pm 35.8 31.3 2.1 12 17.6 S 15 20 8 11 1014.4 1011.7 0.0
25/07:00pm 36.4 31.9 2.2 12 18.0 SSW 15 24 8 13 1014.0 1011.3 0.0
25/06:30pm 37.3 32.4 2.2 11 18.5 SSW 17 24 9 13 1013.6 1010.9 0.0
25/06:00pm 38.2 33.0 2.6 11 19.0 SSW 19 32 10 17 1013.3 1010.6 0.0
25/05:30pm 38.8 34.9 3.2 11 19.3 SW 13 22 7 12 1012.8 1010.2 0.0
25/05:00pm 39.1 35.2 3.4 11 19.4 SW 13 22 7 12 1012.6 1009.9 0.0
25/04:30pm 39.6 36.1 3.5 11 19.7 SW 11 22 6 12 1012.5 1009.8 0.0
25/04:00pm 39.0 34.4 3.5 11 19.3 SSW 17 24 9 13 1012.5 1009.8 0.0
25/03:30pm 40.0 37.0 4.0 11 19.8 WSW 9 19 5 10 1012.5 1009.8 0.0
25/03:00pm 40.0 37.5 3.9 11 19.9 SE 6 13 3 7 1012.7 1010.1 0.0
25/02:30pm 39.9 34.7 3.8 11 19.8 S 20 28 11 15 1013.1 1010.5 0.0
25/02:00pm 38.8 34.2 3.6 11 19.2 SSE 17 28 9 15 1013.5 1010.8 0.0
25/01:30pm 38.7 34.9 3.9 11 19.0 SW 13 28 7 15 1013.8 1011.1 0.0
25/01:00pm 39.0 34.0 3.5 11 19.3 SSW 19 32 10 17 1014.1 1011.4 0.0
25/12:30pm 38.9 34.7 3.9 11 19.1 SSE 15 32 8 17 1014.4 1011.7 0.0
25/12:00pm 38.6 33.2 2.7 11 19.2 S 20 35 11 19 1014.8 1012.2 0.0
25/11:30am 38.3 33.0 2.9 11 19.0 S 20 32 11 17 1015.2 1012.6 0.0
25/11:00am 37.7 32.2 2.1 11 18.8 S 20 37 11 20 1015.7 1013.0 0.0
25/10:30am 37.8 31.6 2.2 11 18.9 SSE 24 33 13 18 1016.1 1013.4 0.0
25/10:00am 36.4 30.9 1.8 11 18.1 SSE 20 39 11 21 1016.5 1013.8 0.0
25/09:30am 35.4 29.1 1.8 12 17.5 S 24 33 13 18 1016.5 1013.8 0.0
25/09:00am 35.1 29.3 2.2 12 17.2 SSE 22 33 12 18 1016.8 1014.2 0.0
25/08:30am 33.0 28.2 2.4 14 15.8 S 17 30 9 16 1016.8 1014.2 0.0
25/08:00am 31.1 26.7 2.5 16 14.6 S 15 24 8 13 1016.8 1014.2 0.0
25/07:30am 29.9 25.4 2.2 17 14.0 S 15 20 8 11 1016.5 1013.8 0.0
25/07:00am 28.3 25.3 4.3 21 12.5 SSW 9 13 5 7 1016.2 1013.5 0.0
25/06:30am 27.1 24.6 4.7 24 11.6 SW 7 11 4 6 1015.9 1013.2 0.0
25/06:00am 25.7 22.9 5.0 26 10.7 WSW 9 13 5 7 1015.5 1012.9 0.0
25/05:30am 24.9 21.8 5.6 29 10.0 WSW 11 15 6 8 1015.2 1012.6 0.0
25/05:00am 25.4 22.8 5.9 28 10.2 SW 9 11 5 6 1014.9 1012.3 0.0
25/04:30am 25.3 23.2 8.2 33 9.3 WSW 9 11 5 6 1014.6 1011.9 0.0
25/04:00am 25.7 23.7 10.3 38 8.7 W 11 15 6 8 1014.4 1011.7 0.0
25/03:30am 26.0 25.7 13.2 45 7.6 W 7 13 4 7 1014.4 1011.7 0.0
25/03:00am 26.1 25.9 14.8 49 6.9 W 9 15 5 8 1014.1 1011.4 0.0
25/02:30am 26.3 27.1 16.3 54 6.3 WSW 7 11 4 6 1013.9 1011.2 0.0
25/02:00am 26.4 27.2 16.4 54 6.3 WNW 7 11 4 6 1014.0 1011.3 0.0
25/01:30am 27.5 28.0 16.5 51 6.9 NW 9 11 5 6 1014.1 1011.4 0.0
25/01:00am 29.0 30.4 16.3 46 8.0 NE 4 7 2 4 1014.4 1011.7 0.0
25/12:30am 29.6 31.0 16.4 45 8.4 NE 4 6 2 3 1014.1 1011.4 0.0
25/12:00am 30.4 29.1 15.9 41 9.2 N 17 26 9 14 1014.2 1011.5 0.0
 
Date/Time
WST
Temp
°C
App
Temp
°C
Dew
Point
Rel
Hum
%
Delta-T
°C
Wind Press
QNH
hPa
Press
MSL
hPa
Rain
since 9 am
mm
Dir
 
Spd
km/h
Gust
km/h
Spd
kts
Gust
kts
24/11:30pm 30.2 30.6 16.3 43 8.8 WNW 9 20 5 11 1014.2 1011.5 0.0
24/11:00pm 29.9 26.1 16.7 45 8.4 NW 32 37 17 20 1013.9 1011.2 0.0
24/10:30pm 31.3 28.6 14.7 36 10.3 WNW 22 30 12 16 1014.6 1011.9 0.0
24/10:00pm 32.1 31.8 15.4 36 10.5 NNE 11 24 6 13 1014.4 1011.7 0.0
24/09:30pm 32.4 29.3 14.5 33 11.2 NNW 24 33 13 18 1013.4 1010.7 0.0
24/09:00pm 31.9 27.3 15.2 36 10.5 NNW 33 44 18 24 1013.0 1010.4 0.0
24/08:30pm 33.0 29.4 6.6 19 14.6 N 15 39 8 21 1013.1 1010.5 0.0
24/08:00pm 33.1 29.9 5.2 17 15.1 N 11 15 6 8 1012.4 1009.7 0.0
24/07:30pm 33.6 30.8 5.1 17 15.4 NNW 9 13 5 7 1012.1 1009.4 0.0
24/07:00pm 33.9 30.7 5.3 17 15.6 NNW 11 17 6 9 1011.7 1009.0 0.0
24/06:30pm 35.3 32.1 5.0 15 16.5 NW 11 19 6 10 1011.4 1008.7 0.0
24/06:00pm 37.0 32.9 4.4 13 17.8 NW 15 22 8 12 1011.1 1008.4 0.0
24/05:30pm 37.6 32.5 4.1 12 18.3 WNW 20 33 11 18 1010.6 1008.0 0.0
24/05:00pm 37.0 32.0 3.8 12 18.0 W 19 35 10 19 1010.4 1007.7 0.0
24/04:30pm 37.1 32.7 4.7 13 17.8 W 17 30 9 16 1010.4 1007.7 0.0
24/04:00pm 37.2 32.6 5.6 14 17.6 W 19 32 10 17 1010.5 1007.8 0.0
24/03:30pm 38.1 34.8 4.6 12 18.4 NNW 11 17 6 9 1010.6 1008.0 0.0
24/03:00pm 38.9 34.9 4.7 12 18.9 NNW 15 22 8 12 1010.7 1008.1 0.0
24/02:30pm 38.9 35.3 5.0 12 18.8 NNE 13 24 7 13 1010.7 1008.1 0.0
24/02:00pm 38.9 34.6 5.1 12 18.8 NE 17 24 9 13 1011.2 1008.5 0.0
24/01:30pm 38.2 35.8 5.3 13 18.3 E 7 17 4 9 1011.5 1008.8 0.0
24/01:00pm 38.6 35.8 5.1 13 18.6 NNE 9 19 5 10 1011.9 1009.2 0.0
24/12:30pm 38.5 35.1 6.1 14 18.3 NNE 13 26 7 14 1012.3 1009.6 0.0
24/12:00pm 38.0 34.7 6.6 14 17.8 S 13 22 7 12 1012.8 1010.2 0.0
24/11:30am 37.5 35.1 7.0 15 17.4 S 9 22 5 12 1013.3 1010.6 0.0
24/11:00am 36.4 33.3 7.4 17 16.5 E 13 24 7 13 1013.8 1011.1 0.0
24/10:30am 35.7 32.0 6.5 16 16.4 ESE 15 26 8 14 1014.2 1011.5 0.0
24/10:00am 35.3 30.8 6.1 16 16.2 E 19 22 10 12 1014.5 1011.8 0.0
24/09:30am 34.3 30.6 6.1 17 15.6 SSE 15 24 8 13 1014.8 1012.2 0.0
24/09:00am 32.9 28.4 6.2 19 14.7 ESE 19 22 10 12 1015.0 1012.4 -
24/08:30am 31.5 27.8 6.4 20 13.7 SSE 15 26 8 14 1015.2 1012.6 -
24/08:00am 29.7 26.1 6.7 23 12.5 S 15 24 8 13 1015.0 1012.4 -
24/07:30am 28.5 24.4 6.4 24 11.9 SSE 17 26 9 14 1015.0 1012.4 -
24/07:00am 27.5 25.1 7.0 27 11.1 S 9 15 5 8 1014.9 1012.3 -
24/06:30am 24.9 23.1 8.0 34 9.2 SW 7 11 4 6 1014.9 1012.3 -
24/06:00am 23.1 21.5 8.2 38 8.0 WSW 6 9 3 5 1014.6 1011.9 -
24/05:30am 22.8 21.2 8.1 39 7.9 SW 6 9 3 5 1014.2 1011.5 -
24/05:00am 22.9 21.3 8.0 38 8.0 SSW 6 7 3 4 1013.9 1011.2 -
24/04:30am 23.9 21.8 8.3 37 8.5 SW 9 11 5 6 1013.9 1011.2 -
24/04:00am 25.5 24.2 9.2 35 9.1 S 6 6 3 3 1013.7 1011.0 -
24/03:30am 24.9 24.7 10.3 39 8.3 ENE 2 4 1 2 1013.6 1010.9 -
24/03:00am 26.0 24.6 8.8 33 9.5 WSW 6 7 3 4 1013.7 1011.0 0.0
24/02:30am 26.4 25.7 9.9 35 9.3 SW 4 9 2 5 1013.5 1010.8 -
24/02:00am 27.5 27.2 10.0 33 10.0 NE 2 6 1 3 1013.7 1011.0 -
24/01:30am 28.0 27.0 8.8 30 10.7 WSW 4 6 2 3 1013.8 1011.1 -
24/01:00am 29.2 27.8 9.6 29 11.2 NNE 7 13 4 7 1014.1 1011.4 -
24/12:30am 29.0 26.6 10.0 30 10.9 NE 13 17 7 9 1014.3 1011.6 -
24/12:00am 29.3 28.1 9.4 29 11.3 ESE 6 9 3 5 1013.8 1011.1 -
 
Date/Time
WST
Temp
°C
App
Temp
°C
Dew
Point
Rel
Hum
%
Delta-T
°C
Wind Press
QNH
hPa
Press
MSL
hPa
Rain
since 9 am
mm
Dir
 
Spd
km/h
Gust
km/h
Spd
kts
Gust
kts
23/11:30pm 29.7 28.1 8.2 26 12.0 SW 6 9 3 5 1013.9 1011.2 -
23/11:00pm 30.4 28.6 8.0 24 12.5 SW 7 11 4 6 1014.0 1011.3 -
23/10:30pm 31.1 28.9 7.7 23 13.1 SW 9 15 5 8 1014.1 1011.4 -
23/10:00pm 32.1 30.0 6.6 20 14.1 SW 7 17 4 9 1014.1 1011.4 -
23/09:30pm 32.0 30.2 7.1 21 13.8 ENE 6 15 3 8 1014.2 1011.5 -
23/09:00pm 32.5 29.7 6.9 20 14.2 SSE 11 17 6 9 1014.0 1011.3 0.2
23/08:30pm 32.7 30.3 6.9 20 14.3 W 9 17 5 9 1014.1 1011.4 -
23/08:00pm 33.1 29.2 7.1 20 14.5 W 17 24 9 13 1014.1 1011.4 -
23/07:30pm 32.1 28.7 9.1 24 13.2 SSE 17 28 9 15 1013.8 1011.1 -
23/07:00pm 31.0 26.3 11.9 31 11.4 SW 28 41 15 22 1014.0 1011.3 -
23/06:55pm 33.0 27.2 7.9 21 14.2 SW 28 41 15 22 1013.7 1011.0 -
23/06:30pm 35.2 33.7 4.8 15 16.5 N 2 4 1 2 1012.4 1009.7 -
23/06:00pm 36.3 34.3 4.3 13 17.4 N 4 6 2 3 1012.0 1009.3 -
23/05:30pm 36.7 34.2 4.0 13 17.7 N 6 7 3 4 1011.8 1009.1 -
23/05:00pm 37.1 34.4 3.8 12 18.0 NNW 7 9 4 5 1011.6 1008.9 -
23/04:30pm 37.6 34.6 4.0 12 18.3 NNW 9 17 5 9 1011.6 1008.9 -
23/04:00pm 38.1 35.7 4.1 12 18.6 WNW 6 13 3 7 1011.7 1009.0 -
23/03:30pm 37.4 34.4 3.9 12 18.2 E 9 17 5 9 1011.8 1009.1 -
23/03:00pm 37.8 34.0 4.1 12 18.4 W 13 20 7 11 1012.0 1009.3 -
23/02:30pm 37.1 34.2 4.4 13 17.9 SE 9 22 5 12 1012.2 1009.5 -
23/02:00pm 36.9 33.9 4.3 13 17.8 WSW 9 17 5 9 1012.4 1009.7 -
23/01:30pm 36.7 33.4 4.6 13 17.5 ESE 11 24 6 13 1012.7 1010.1 -
23/01:00pm 36.8 33.9 4.5 13 17.6 S 9 22 5 12 1013.1 1010.5 -
23/12:30pm 37.0 34.7 5.9 14 17.4 SW 7 28 4 15 1013.6 1010.9 -
23/12:00pm 36.2 33.8 6.9 16 16.5 S 9 20 5 11 1014.0 1011.3 -
23/11:00am 35.2 31.3 7.3 18 15.8 S 17 26 9 14 1014.8 1012.2 -
23/10:30am 34.6 30.5 7.8 19 15.2 SSE 19 30 10 16 1015.0 1012.4 -
23/10:00am 33.3 28.2 7.6 20 14.5 S 24 33 13 18 1015.4 1012.8 -
23/09:00am 31.4 26.7 7.8 23 13.2 SSE 22 35 12 19 1015.8 1013.1 0.0
23/08:30am 30.7 25.7 7.9 24 12.7 SSE 24 33 13 18 1015.8 1013.1 0.0

Other Formats:

Comma delimited format used in spreadsheet applications
http://www.bom.gov.au/fwo/IDW60801/IDW60801.99737.axf

JavaScript Object Notation format (JSON) in row-major order
http://www.bom.gov.au/fwo/IDW60801/IDW60801.99737.json